sensor_id;sensor_type;location;lat;lon;timestamp;P1;durP1;ratioP1;P2;durP2;ratioP2
38609;SDS011;24367;51.640;9.566;2023-04-29T00:02:06;5.18;;;1.80;;
38609;SDS011;24367;51.640;9.566;2023-04-29T00:04:33;3.40;;;1.55;;
38609;SDS011;24367;51.640;9.566;2023-04-29T00:06:59;2.70;;;1.50;;
38609;SDS011;24367;51.640;9.566;2023-04-29T00:09:26;2.15;;;1.45;;
38609;SDS011;24367;51.640;9.566;2023-04-29T00:11:53;2.58;;;1.77;;
38609;SDS011;24367;51.640;9.566;2023-04-29T00:14:20;2.63;;;1.40;;
38609;SDS011;24367;51.640;9.566;2023-04-29T00:16:46;2.53;;;1.50;;
38609;SDS011;24367;51.640;9.566;2023-04-29T00:19:13;3.00;;;1.70;;
38609;SDS011;24367;51.640;9.566;2023-04-29T00:21:39;2.50;;;1.45;;
38609;SDS011;24367;51.640;9.566;2023-04-29T00:24:05;2.05;;;1.55;;
38609;SDS011;24367;51.640;9.566;2023-04-29T00:26:32;3.15;;;1.42;;
38609;SDS011;24367;51.640;9.566;2023-04-29T00:29:00;2.53;;;1.58;;
38609;SDS011;24367;51.640;9.566;2023-04-29T00:31:27;3.63;;;1.65;;
38609;SDS011;24367;51.640;9.566;2023-04-29T00:33:53;2.88;;;1.70;;
38609;SDS011;24367;51.640;9.566;2023-04-29T00:36:20;2.42;;;1.33;;
38609;SDS011;24367;51.640;9.566;2023-04-29T00:38:46;2.17;;;1.27;;
38609;SDS011;24367;51.640;9.566;2023-04-29T00:41:13;2.78;;;1.50;;
38609;SDS011;24367;51.640;9.566;2023-04-29T00:43:39;2.20;;;1.38;;
38609;SDS011;24367;51.640;9.566;2023-04-29T00:46:07;2.67;;;1.42;;
38609;SDS011;24367;51.640;9.566;2023-04-29T00:48:34;2.35;;;1.48;;
38609;SDS011;24367;51.640;9.566;2023-04-29T00:51:01;2.38;;;1.60;;
38609;SDS011;24367;51.640;9.566;2023-04-29T00:53:28;2.15;;;1.25;;
38609;SDS011;24367;51.640;9.566;2023-04-29T00:55:54;2.67;;;1.33;;
38609;SDS011;24367;51.640;9.566;2023-04-29T00:58:21;2.78;;;1.15;;
38609;SDS011;24367;51.640;9.566;2023-04-29T01:00:54;2.20;;;1.20;;
38609;SDS011;24367;51.640;9.566;2023-04-29T01:03:22;2.30;;;1.20;;
38609;SDS011;24367;51.640;9.566;2023-04-29T01:05:49;2.22;;;1.27;;
38609;SDS011;24367;51.640;9.566;2023-04-29T01:08:35;2.33;;;1.40;;
38609;SDS011;24367;51.640;9.566;2023-04-29T01:11:07;2.67;;;1.50;;
38609;SDS011;24367;51.640;9.566;2023-04-29T01:13:36;2.10;;;1.40;;
38609;SDS011;24367;51.640;9.566;2023-04-29T01:16:10;2.35;;;1.50;;
38609;SDS011;24367;51.640;9.566;2023-04-29T01:18:40;2.08;;;1.35;;
38609;SDS011;24367;51.640;9.566;2023-04-29T01:21:11;1.55;;;1.10;;
38609;SDS011;24367;51.640;9.566;2023-04-29T01:23:38;2.33;;;1.48;;
38609;SDS011;24367;51.640;9.566;2023-04-29T01:26:05;2.60;;;1.33;;
38609;SDS011;24367;51.640;9.566;2023-04-29T01:31:50;1.92;;;1.27;;
38609;SDS011;24367;51.640;9.566;2023-04-29T01:36:54;2.15;;;1.30;;
38609;SDS011;24367;51.640;9.566;2023-04-29T01:39:28;2.20;;;1.10;;
38609;SDS011;24367;51.640;9.566;2023-04-29T01:42:09;2.88;;;1.27;;
38609;SDS011;24367;51.640;9.566;2023-04-29T01:44:41;3.95;;;1.38;;
38609;SDS011;24367;51.640;9.566;2023-04-29T01:47:08;2.15;;;1.10;;
38609;SDS011;24367;51.640;9.566;2023-04-29T01:49:41;2.05;;;1.20;;
38609;SDS011;24367;51.640;9.566;2023-04-29T01:52:07;2.95;;;1.38;;
38609;SDS011;24367;51.640;9.566;2023-04-29T01:54:37;2.38;;;1.55;;
38609;SDS011;24367;51.640;9.566;2023-04-29T01:57:03;2.30;;;1.55;;
38609;SDS011;24367;51.640;9.566;2023-04-29T01:59:56;2.40;;;1.40;;
38609;SDS011;24367;51.640;9.566;2023-04-29T02:02:49;2.88;;;1.50;;
38609;SDS011;24367;51.640;9.566;2023-04-29T02:05:24;2.05;;;1.38;;
38609;SDS011;24367;51.640;9.566;2023-04-29T02:07:54;1.73;;;1.20;;
38609;SDS011;24367;51.640;9.566;2023-04-29T02:10:22;1.77;;;1.15;;
38609;SDS011;24367;51.640;9.566;2023-04-29T02:12:56;2.80;;;1.40;;
38609;SDS011;24367;51.640;9.566;2023-04-29T02:15:24;2.28;;;1.33;;
38609;SDS011;24367;51.640;9.566;2023-04-29T02:17:51;1.92;;;1.40;;
38609;SDS011;24367;51.640;9.566;2023-04-29T02:20:19;2.65;;;1.52;;
38609;SDS011;24367;51.640;9.566;2023-04-29T02:22:45;2.95;;;1.60;;
38609;SDS011;24367;51.640;9.566;2023-04-29T02:25:11;2.80;;;1.40;;
38609;SDS011;24367;51.640;9.566;2023-04-29T02:27:40;1.92;;;1.20;;
38609;SDS011;24367;51.640;9.566;2023-04-29T02:30:06;1.80;;;1.23;;
38609;SDS011;24367;51.640;9.566;2023-04-29T02:32:33;1.70;;;1.30;;
38609;SDS011;24367;51.640;9.566;2023-04-29T02:35:00;2.70;;;1.92;;
38609;SDS011;24367;51.640;9.566;2023-04-29T02:37:27;3.28;;;1.20;;
38609;SDS011;24367;51.640;9.566;2023-04-29T02:39:53;1.90;;;1.20;;
38609;SDS011;24367;51.640;9.566;2023-04-29T02:42:20;1.85;;;1.23;;
38609;SDS011;24367;51.640;9.566;2023-04-29T02:44:49;2.17;;;1.23;;
38609;SDS011;24367;51.640;9.566;2023-04-29T02:47:15;2.80;;;1.60;;
38609;SDS011;24367;51.640;9.566;2023-04-29T02:49:43;1.95;;;1.40;;
38609;SDS011;24367;51.640;9.566;2023-04-29T02:52:10;2.13;;;1.25;;
38609;SDS011;24367;51.640;9.566;2023-04-29T02:54:36;2.35;;;1.50;;
38609;SDS011;24367;51.640;9.566;2023-04-29T02:57:03;2.00;;;1.35;;
38609;SDS011;24367;51.640;9.566;2023-04-29T02:59:29;1.52;;;1.10;;
38609;SDS011;24367;51.640;9.566;2023-04-29T03:01:57;2.20;;;1.50;;
38609;SDS011;24367;51.640;9.566;2023-04-29T03:04:23;2.08;;;1.20;;
38609;SDS011;24367;51.640;9.566;2023-04-29T03:06:50;2.40;;;1.42;;
38609;SDS011;24367;51.640;9.566;2023-04-29T03:09:16;2.30;;;1.30;;
38609;SDS011;24367;51.640;9.566;2023-04-29T03:11:44;1.83;;;1.23;;
38609;SDS011;24367;51.640;9.566;2023-04-29T03:14:11;1.60;;;1.20;;
38609;SDS011;24367;51.640;9.566;2023-04-29T03:16:37;3.00;;;1.35;;
38609;SDS011;24367;51.640;9.566;2023-04-29T03:19:05;1.77;;;1.25;;
38609;SDS011;24367;51.640;9.566;2023-04-29T03:21:31;2.15;;;1.40;;
38609;SDS011;24367;51.640;9.566;2023-04-29T03:23:58;1.88;;;1.30;;
38609;SDS011;24367;51.640;9.566;2023-04-29T03:26:31;1.70;;;1.30;;
38609;SDS011;24367;51.640;9.566;2023-04-29T03:28:57;1.90;;;1.23;;
38609;SDS011;24367;51.640;9.566;2023-04-29T03:31:25;1.98;;;1.33;;
38609;SDS011;24367;51.640;9.566;2023-04-29T03:33:51;2.00;;;1.20;;
38609;SDS011;24367;51.640;9.566;2023-04-29T03:36:20;2.25;;;1.20;;
38609;SDS011;24367;51.640;9.566;2023-04-29T03:39:16;1.60;;;1.15;;
38609;SDS011;24367;51.640;9.566;2023-04-29T03:41:43;2.28;;;1.42;;
38609;SDS011;24367;51.640;9.566;2023-04-29T03:44:09;1.55;;;1.10;;
38609;SDS011;24367;51.640;9.566;2023-04-29T03:46:35;1.55;;;1.10;;
38609;SDS011;24367;51.640;9.566;2023-04-29T03:49:02;2.33;;;1.40;;
38609;SDS011;24367;51.640;9.566;2023-04-29T03:51:30;2.88;;;1.33;;
38609;SDS011;24367;51.640;9.566;2023-04-29T03:54:05;1.70;;;1.20;;
38609;SDS011;24367;51.640;9.566;2023-04-29T03:56:34;2.28;;;1.30;;
38609;SDS011;24367;51.640;9.566;2023-04-29T03:59:01;1.73;;;1.23;;
38609;SDS011;24367;51.640;9.566;2023-04-29T04:01:28;1.30;;;1.00;;
38609;SDS011;24367;51.640;9.566;2023-04-29T04:03:55;2.25;;;1.20;;
38609;SDS011;24367;51.640;9.566;2023-04-29T04:06:21;1.70;;;1.27;;
38609;SDS011;24367;51.640;9.566;2023-04-29T04:08:51;2.05;;;1.20;;
38609;SDS011;24367;51.640;9.566;2023-04-29T04:11:23;1.45;;;1.15;;
38609;SDS011;24367;51.640;9.566;2023-04-29T04:13:58;1.85;;;1.10;;
38609;SDS011;24367;51.640;9.566;2023-04-29T04:16:24;1.50;;;1.10;;
38609;SDS011;24367;51.640;9.566;2023-04-29T04:18:51;1.85;;;1.30;;
38609;SDS011;24367;51.640;9.566;2023-04-29T04:21:17;2.05;;;1.08;;
38609;SDS011;24367;51.640;9.566;2023-04-29T04:23:52;2.38;;;1.40;;
38609;SDS011;24367;51.640;9.566;2023-04-29T04:26:21;2.00;;;1.40;;
38609;SDS011;24367;51.640;9.566;2023-04-29T04:28:56;1.30;;;1.00;;
38609;SDS011;24367;51.640;9.566;2023-04-29T04:31:36;1.70;;;1.30;;
38609;SDS011;24367;51.640;9.566;2023-04-29T04:34:02;1.77;;;1.20;;
38609;SDS011;24367;51.640;9.566;2023-04-29T04:36:31;2.95;;;1.20;;
38609;SDS011;24367;51.640;9.566;2023-04-29T04:38:59;1.50;;;1.10;;
38609;SDS011;24367;51.640;9.566;2023-04-29T04:41:25;1.70;;;1.10;;
38609;SDS011;24367;51.640;9.566;2023-04-29T04:43:52;1.50;;;1.10;;
38609;SDS011;24367;51.640;9.566;2023-04-29T04:46:28;1.75;;;1.10;;
38609;SDS011;24367;51.640;9.566;2023-04-29T04:49:04;1.90;;;1.10;;
38609;SDS011;24367;51.640;9.566;2023-04-29T04:51:33;1.73;;;1.10;;
38609;SDS011;24367;51.640;9.566;2023-04-29T04:54:00;1.55;;;1.05;;
38609;SDS011;24367;51.640;9.566;2023-04-29T04:56:29;1.77;;;1.17;;
38609;SDS011;24367;51.640;9.566;2023-04-29T04:58:55;2.15;;;1.00;;
38609;SDS011;24367;51.640;9.566;2023-04-29T05:01:21;2.58;;;1.30;;
38609;SDS011;24367;51.640;9.566;2023-04-29T05:03:48;2.13;;;1.00;;
38609;SDS011;24367;51.640;9.566;2023-04-29T05:06:14;1.85;;;1.10;;
38609;SDS011;24367;51.640;9.566;2023-04-29T05:08:44;2.10;;;1.40;;
38609;SDS011;24367;51.640;9.566;2023-04-29T05:11:16;1.65;;;1.30;;
38609;SDS011;24367;51.640;9.566;2023-04-29T05:13:47;1.60;;;1.15;;
38609;SDS011;24367;51.640;9.566;2023-04-29T05:16:16;1.77;;;1.20;;
38609;SDS011;24367;51.640;9.566;2023-04-29T05:18:44;2.28;;;1.20;;
38609;SDS011;24367;51.640;9.566;2023-04-29T05:21:11;1.75;;;1.27;;
38609;SDS011;24367;51.640;9.566;2023-04-29T05:23:38;1.70;;;1.10;;
38609;SDS011;24367;51.640;9.566;2023-04-29T05:26:05;1.48;;;1.10;;
38609;SDS011;24367;51.640;9.566;2023-04-29T05:28:33;1.67;;;1.30;;
38609;SDS011;24367;51.640;9.566;2023-04-29T05:31:00;1.95;;;1.30;;
38609;SDS011;24367;51.640;9.566;2023-04-29T05:33:28;1.80;;;1.20;;
38609;SDS011;24367;51.640;9.566;2023-04-29T05:35:55;1.58;;;1.17;;
38609;SDS011;24367;51.640;9.566;2023-04-29T05:38:21;1.48;;;1.13;;
38609;SDS011;24367;51.640;9.566;2023-04-29T05:40:59;1.80;;;1.50;;
38609;SDS011;24367;51.640;9.566;2023-04-29T05:43:46;1.70;;;1.20;;
38609;SDS011;24367;51.640;9.566;2023-04-29T05:46:13;1.60;;;1.20;;
38609;SDS011;24367;51.640;9.566;2023-04-29T05:48:40;1.60;;;1.05;;
38609;SDS011;24367;51.640;9.566;2023-04-29T05:51:09;1.63;;;1.33;;
38609;SDS011;24367;51.640;9.566;2023-04-29T05:53:36;1.52;;;1.10;;
38609;SDS011;24367;51.640;9.566;2023-04-29T05:56:04;1.48;;;1.05;;
38609;SDS011;24367;51.640;9.566;2023-04-29T05:58:33;2.22;;;1.13;;
38609;SDS011;24367;51.640;9.566;2023-04-29T06:01:00;2.17;;;1.10;;
38609;SDS011;24367;51.640;9.566;2023-04-29T06:03:27;1.65;;;1.20;;
38609;SDS011;24367;51.640;9.566;2023-04-29T06:06:14;1.45;;;1.15;;
38609;SDS011;24367;51.640;9.566;2023-04-29T06:09:01;1.80;;;1.30;;
38609;SDS011;24367;51.640;9.566;2023-04-29T06:11:29;1.70;;;1.30;;
38609;SDS011;24367;51.640;9.566;2023-04-29T06:13:56;1.60;;;1.02;;
38609;SDS011;24367;51.640;9.566;2023-04-29T06:16:25;1.55;;;1.05;;
38609;SDS011;24367;51.640;9.566;2023-04-29T06:18:52;1.95;;;1.23;;
38609;SDS011;24367;51.640;9.566;2023-04-29T06:21:19;1.42;;;1.00;;
38609;SDS011;24367;51.640;9.566;2023-04-29T06:23:45;1.75;;;1.08;;
38609;SDS011;24367;51.640;9.566;2023-04-29T06:26:15;1.95;;;1.10;;
38609;SDS011;24367;51.640;9.566;2023-04-29T06:28:43;1.75;;;1.10;;
38609;SDS011;24367;51.640;9.566;2023-04-29T06:31:10;1.52;;;1.05;;
38609;SDS011;24367;51.640;9.566;2023-04-29T06:33:38;1.77;;;1.27;;
38609;SDS011;24367;51.640;9.566;2023-04-29T06:36:05;1.55;;;1.17;;
38609;SDS011;24367;51.640;9.566;2023-04-29T06:38:52;2.33;;;1.40;;
38609;SDS011;24367;51.640;9.566;2023-04-29T06:41:34;1.98;;;1.30;;
38609;SDS011;24367;51.640;9.566;2023-04-29T06:44:22;2.28;;;1.30;;
38609;SDS011;24367;51.640;9.566;2023-04-29T06:47:01;1.58;;;1.08;;
38609;SDS011;24367;51.640;9.566;2023-04-29T06:49:48;1.48;;;1.10;;
38609;SDS011;24367;51.640;9.566;2023-04-29T06:52:14;3.78;;;1.08;;
38609;SDS011;24367;51.640;9.566;2023-04-29T06:54:41;2.22;;;1.13;;
38609;SDS011;24367;51.640;9.566;2023-04-29T06:57:08;2.65;;;1.70;;
38609;SDS011;24367;51.640;9.566;2023-04-29T06:59:34;2.50;;;1.70;;
38609;SDS011;24367;51.640;9.566;2023-04-29T07:02:02;2.80;;;1.50;;
38609;SDS011;24367;51.640;9.566;2023-04-29T07:04:29;1.95;;;1.33;;
38609;SDS011;24367;51.640;9.566;2023-04-29T07:06:56;2.13;;;1.45;;
38609;SDS011;24367;51.640;9.566;2023-04-29T07:09:23;2.58;;;1.25;;
38609;SDS011;24367;51.640;9.566;2023-04-29T07:11:51;2.40;;;1.27;;
38609;SDS011;24367;51.640;9.566;2023-04-29T07:14:18;1.70;;;1.15;;
38609;SDS011;24367;51.640;9.566;2023-04-29T07:16:46;2.63;;;1.63;;
38609;SDS011;24367;51.640;9.566;2023-04-29T07:19:12;1.75;;;1.10;;
38609;SDS011;24367;51.640;9.566;2023-04-29T07:21:39;1.77;;;1.20;;
38609;SDS011;24367;51.640;9.566;2023-04-29T07:24:07;2.17;;;1.52;;
38609;SDS011;24367;51.640;9.566;2023-04-29T07:26:33;1.58;;;1.20;;
38609;SDS011;24367;51.640;9.566;2023-04-29T07:29:00;1.90;;;1.20;;
38609;SDS011;24367;51.640;9.566;2023-04-29T07:31:26;1.35;;;1.00;;
38609;SDS011;24367;51.640;9.566;2023-04-29T07:33:53;3.47;;;1.30;;
38609;SDS011;24367;51.640;9.566;2023-04-29T07:36:21;3.88;;;1.30;;
38609;SDS011;24367;51.640;9.566;2023-04-29T07:38:47;2.00;;;1.20;;
38609;SDS011;24367;51.640;9.566;2023-04-29T07:41:15;2.22;;;1.25;;
38609;SDS011;24367;51.640;9.566;2023-04-29T07:43:42;2.95;;;1.42;;
38609;SDS011;24367;51.640;9.566;2023-04-29T07:46:08;4.55;;;1.23;;
38609;SDS011;24367;51.640;9.566;2023-04-29T07:48:35;1.67;;;1.10;;
38609;SDS011;24367;51.640;9.566;2023-04-29T07:51:03;5.05;;;1.38;;
38609;SDS011;24367;51.640;9.566;2023-04-29T07:53:30;2.03;;;1.17;;
38609;SDS011;24367;51.640;9.566;2023-04-29T07:55:56;1.67;;;1.13;;
38609;SDS011;24367;51.640;9.566;2023-04-29T07:58:25;1.98;;;1.33;;
38609;SDS011;24367;51.640;9.566;2023-04-29T08:00:55;2.03;;;1.45;;
38609;SDS011;24367;51.640;9.566;2023-04-29T08:03:21;2.78;;;1.10;;
38609;SDS011;24367;51.640;9.566;2023-04-29T08:05:48;2.03;;;1.20;;
38609;SDS011;24367;51.640;9.566;2023-04-29T08:08:17;2.03;;;1.52;;
38609;SDS011;24367;51.640;9.566;2023-04-29T08:10:43;1.73;;;1.30;;
38609;SDS011;24367;51.640;9.566;2023-04-29T08:13:10;1.73;;;1.33;;
38609;SDS011;24367;51.640;9.566;2023-04-29T08:15:39;2.45;;;1.80;;
38609;SDS011;24367;51.640;9.566;2023-04-29T08:18:05;3.38;;;1.60;;
38609;SDS011;24367;51.640;9.566;2023-04-29T08:20:31;2.22;;;1.48;;
38609;SDS011;24367;51.640;9.566;2023-04-29T08:22:58;2.08;;;1.33;;
38609;SDS011;24367;51.640;9.566;2023-04-29T08:25:24;2.38;;;1.48;;
38609;SDS011;24367;51.640;9.566;2023-04-29T08:27:52;4.07;;;2.20;;
38609;SDS011;24367;51.640;9.566;2023-04-29T08:30:19;3.38;;;2.70;;
38609;SDS011;24367;51.640;9.566;2023-04-29T08:32:46;3.10;;;2.15;;
38609;SDS011;24367;51.640;9.566;2023-04-29T08:35:13;4.72;;;2.08;;
38609;SDS011;24367;51.640;9.566;2023-04-29T08:37:39;3.30;;;2.08;;
38609;SDS011;24367;51.640;9.566;2023-04-29T08:40:07;4.13;;;1.90;;
38609;SDS011;24367;51.640;9.566;2023-04-29T08:42:34;2.60;;;1.65;;
38609;SDS011;24367;51.640;9.566;2023-04-29T08:45:02;3.70;;;1.80;;
38609;SDS011;24367;51.640;9.566;2023-04-29T08:47:29;3.25;;;1.50;;
38609;SDS011;24367;51.640;9.566;2023-04-29T08:49:58;3.15;;;1.83;;
38609;SDS011;24367;51.640;9.566;2023-04-29T08:52:27;4.97;;;1.50;;
38609;SDS011;24367;51.640;9.566;2023-04-29T08:54:53;3.33;;;1.73;;
38609;SDS011;24367;51.640;9.566;2023-04-29T08:57:21;3.75;;;1.70;;
38609;SDS011;24367;51.640;9.566;2023-04-29T08:59:48;2.55;;;1.70;;
38609;SDS011;24367;51.640;9.566;2023-04-29T09:02:15;8.50;;;4.03;;
38609;SDS011;24367;51.640;9.566;2023-04-29T09:04:44;7.38;;;5.20;;
38609;SDS011;24367;51.640;9.566;2023-04-29T09:07:14;8.88;;;5.97;;
38609;SDS011;24367;51.640;9.566;2023-04-29T09:09:40;9.05;;;5.43;;
38609;SDS011;24367;51.640;9.566;2023-04-29T09:12:07;9.00;;;4.65;;
38609;SDS011;24367;51.640;9.566;2023-04-29T09:14:34;4.95;;;3.78;;
38609;SDS011;24367;51.640;9.566;2023-04-29T09:17:01;5.32;;;3.28;;
38609;SDS011;24367;51.640;9.566;2023-04-29T09:19:28;5.20;;;3.58;;
38609;SDS011;24367;51.640;9.566;2023-04-29T09:21:56;6.90;;;3.20;;
38609;SDS011;24367;51.640;9.566;2023-04-29T09:24:25;8.65;;;3.10;;
38609;SDS011;24367;51.640;9.566;2023-04-29T09:26:52;9.55;;;3.30;;
38609;SDS011;24367;51.640;9.566;2023-04-29T09:29:19;6.72;;;3.17;;
38609;SDS011;24367;51.640;9.566;2023-04-29T09:31:45;8.85;;;3.13;;
38609;SDS011;24367;51.640;9.566;2023-04-29T09:34:12;6.00;;;3.05;;
38609;SDS011;24367;51.640;9.566;2023-04-29T09:36:42;8.35;;;3.85;;
38609;SDS011;24367;51.640;9.566;2023-04-29T09:39:11;7.18;;;3.38;;
38609;SDS011;24367;51.640;9.566;2023-04-29T09:41:40;5.90;;;3.63;;
38609;SDS011;24367;51.640;9.566;2023-04-29T09:44:08;9.65;;;3.45;;
38609;SDS011;24367;51.640;9.566;2023-04-29T09:46:35;12.00;;;4.22;;
38609;SDS011;24367;51.640;9.566;2023-04-29T09:49:02;4.70;;;4.20;;
38609;SDS011;24367;51.640;9.566;2023-04-29T09:51:30;9.52;;;4.78;;
38609;SDS011;24367;51.640;9.566;2023-04-29T09:53:57;9.45;;;5.13;;
38609;SDS011;24367;51.640;9.566;2023-04-29T09:56:25;7.70;;;4.00;;
38609;SDS011;24367;51.640;9.566;2023-04-29T09:58:54;8.85;;;4.68;;
38609;SDS011;24367;51.640;9.566;2023-04-29T10:01:21;6.88;;;3.72;;
38609;SDS011;24367;51.640;9.566;2023-04-29T10:03:48;6.47;;;3.53;;
38609;SDS011;24367;51.640;9.566;2023-04-29T10:06:15;8.52;;;4.18;;
38609;SDS011;24367;51.640;9.566;2023-04-29T10:08:43;5.93;;;3.72;;
38609;SDS011;24367;51.640;9.566;2023-04-29T10:11:11;11.07;;;3.78;;
38609;SDS011;24367;51.640;9.566;2023-04-29T10:13:39;14.50;;;4.68;;
38609;SDS011;24367;51.640;9.566;2023-04-29T10:16:10;11.30;;;3.97;;
38609;SDS011;24367;51.640;9.566;2023-04-29T10:18:43;8.23;;;4.00;;
38609;SDS011;24367;51.640;9.566;2023-04-29T10:21:14;8.98;;;3.70;;
38609;SDS011;24367;51.640;9.566;2023-04-29T10:23:41;11.77;;;3.60;;
38609;SDS011;24367;51.640;9.566;2023-04-29T10:26:09;13.15;;;4.00;;
38609;SDS011;24367;51.640;9.566;2023-04-29T10:28:37;7.88;;;3.55;;
38609;SDS011;24367;51.640;9.566;2023-04-29T10:31:04;8.27;;;3.78;;
38609;SDS011;24367;51.640;9.566;2023-04-29T10:33:33;11.63;;;3.13;;
38609;SDS011;24367;51.640;9.566;2023-04-29T10:36:01;6.15;;;3.40;;
38609;SDS011;24367;51.640;9.566;2023-04-29T10:38:28;9.85;;;3.78;;
38609;SDS011;24367;51.640;9.566;2023-04-29T10:40:58;9.70;;;3.83;;
38609;SDS011;24367;51.640;9.566;2023-04-29T10:43:25;8.50;;;3.22;;
38609;SDS011;24367;51.640;9.566;2023-04-29T10:48:43;9.10;;;3.25;;
38609;SDS011;24367;51.640;9.566;2023-04-29T10:51:10;7.70;;;3.78;;
38609;SDS011;24367;51.640;9.566;2023-04-29T10:56:34;9.10;;;3.63;;
38609;SDS011;24367;51.640;9.566;2023-04-29T10:59:02;8.88;;;3.85;;
38609;SDS011;24367;51.640;9.566;2023-04-29T11:01:39;6.88;;;3.45;;
38609;SDS011;24367;51.640;9.566;2023-04-29T11:04:10;7.32;;;3.40;;
38609;SDS011;24367;51.640;9.566;2023-04-29T11:06:39;6.65;;;3.30;;
38609;SDS011;24367;51.640;9.566;2023-04-29T11:09:08;10.57;;;3.70;;
38609;SDS011;24367;51.640;9.566;2023-04-29T11:11:40;7.85;;;3.83;;
38609;SDS011;24367;51.640;9.566;2023-04-29T11:14:07;8.27;;;3.30;;
38609;SDS011;24367;51.640;9.566;2023-04-29T11:16:35;5.40;;;3.35;;
38609;SDS011;24367;51.640;9.566;2023-04-29T11:19:02;8.73;;;3.05;;
38609;SDS011;24367;51.640;9.566;2023-04-29T11:21:31;5.70;;;3.13;;
38609;SDS011;24367;51.640;9.566;2023-04-29T11:23:59;11.38;;;3.83;;
38609;SDS011;24367;51.640;9.566;2023-04-29T11:26:26;5.47;;;3.75;;
38609;SDS011;24367;51.640;9.566;2023-04-29T11:28:52;8.70;;;3.50;;
38609;SDS011;24367;51.640;9.566;2023-04-29T11:31:19;8.75;;;3.78;;
38609;SDS011;24367;51.640;9.566;2023-04-29T11:33:45;7.05;;;3.47;;
38609;SDS011;24367;51.640;9.566;2023-04-29T11:36:12;8.80;;;3.38;;
38609;SDS011;24367;51.640;9.566;2023-04-29T11:38:40;4.88;;;2.85;;
38609;SDS011;24367;51.640;9.566;2023-04-29T11:41:06;6.85;;;3.10;;
38609;SDS011;24367;51.640;9.566;2023-04-29T11:43:34;5.28;;;2.85;;
38609;SDS011;24367;51.640;9.566;2023-04-29T11:46:00;8.43;;;3.42;;
38609;SDS011;24367;51.640;9.566;2023-04-29T11:48:26;5.25;;;3.28;;
38609;SDS011;24367;51.640;9.566;2023-04-29T11:50:56;5.88;;;3.45;;
38609;SDS011;24367;51.640;9.566;2023-04-29T11:53:23;5.65;;;3.35;;
38609;SDS011;24367;51.640;9.566;2023-04-29T11:55:53;5.88;;;3.55;;
38609;SDS011;24367;51.640;9.566;2023-04-29T11:58:20;6.32;;;3.75;;
38609;SDS011;24367;51.640;9.566;2023-04-29T12:00:46;6.32;;;3.05;;
38609;SDS011;24367;51.640;9.566;2023-04-29T12:03:13;6.82;;;2.97;;
38609;SDS011;24367;51.640;9.566;2023-04-29T12:05:44;5.30;;;2.90;;
38609;SDS011;24367;51.640;9.566;2023-04-29T12:08:11;7.38;;;3.00;;
38609;SDS011;24367;51.640;9.566;2023-04-29T12:10:38;6.45;;;3.47;;
38609;SDS011;24367;51.640;9.566;2023-04-29T12:13:06;6.82;;;2.92;;
38609;SDS011;24367;51.640;9.566;2023-04-29T12:15:32;4.78;;;2.95;;
38609;SDS011;24367;51.640;9.566;2023-04-29T12:17:59;5.50;;;3.35;;
38609;SDS011;24367;51.640;9.566;2023-04-29T12:20:26;6.90;;;2.85;;
38609;SDS011;24367;51.640;9.566;2023-04-29T12:22:53;6.47;;;2.90;;
38609;SDS011;24367;51.640;9.566;2023-04-29T12:25:23;6.35;;;2.88;;
38609;SDS011;24367;51.640;9.566;2023-04-29T12:27:50;5.38;;;3.22;;
38609;SDS011;24367;51.640;9.566;2023-04-29T12:30:17;5.95;;;2.90;;
38609;SDS011;24367;51.640;9.566;2023-04-29T12:32:45;3.78;;;2.63;;
38609;SDS011;24367;51.640;9.566;2023-04-29T12:35:15;7.40;;;3.03;;
38609;SDS011;24367;51.640;9.566;2023-04-29T12:37:43;6.00;;;2.95;;
38609;SDS011;24367;51.640;9.566;2023-04-29T12:40:13;4.20;;;2.97;;
38609;SDS011;24367;51.640;9.566;2023-04-29T12:42:41;5.15;;;2.72;;
38609;SDS011;24367;51.640;9.566;2023-04-29T12:45:19;5.72;;;3.10;;
38609;SDS011;24367;51.640;9.566;2023-04-29T12:47:51;6.47;;;2.60;;
38609;SDS011;24367;51.640;9.566;2023-04-29T12:50:18;6.97;;;2.95;;
38609;SDS011;24367;51.640;9.566;2023-04-29T12:52:44;4.80;;;2.58;;
38609;SDS011;24367;51.640;9.566;2023-04-29T12:55:10;4.57;;;2.90;;
38609;SDS011;24367;51.640;9.566;2023-04-29T12:57:37;4.20;;;3.05;;
38609;SDS011;24367;51.640;9.566;2023-04-29T13:00:04;7.50;;;3.15;;
38609;SDS011;24367;51.640;9.566;2023-04-29T13:02:33;10.57;;;2.95;;
38609;SDS011;24367;51.640;9.566;2023-04-29T13:04:59;6.50;;;2.78;;
38609;SDS011;24367;51.640;9.566;2023-04-29T13:07:25;9.88;;;3.33;;
38609;SDS011;24367;51.640;9.566;2023-04-29T13:09:52;6.90;;;3.22;;
38609;SDS011;24367;51.640;9.566;2023-04-29T13:12:18;13.45;;;2.70;;
38609;SDS011;24367;51.640;9.566;2023-04-29T13:14:45;9.63;;;3.40;;
38609;SDS011;24367;51.640;9.566;2023-04-29T13:17:11;19.83;;;3.65;;
38609;SDS011;24367;51.640;9.566;2023-04-29T13:19:39;9.55;;;3.33;;
38609;SDS011;24367;51.640;9.566;2023-04-29T13:22:06;16.42;;;4.03;;
38609;SDS011;24367;51.640;9.566;2023-04-29T13:24:33;14.60;;;3.88;;
38609;SDS011;24367;51.640;9.566;2023-04-29T13:27:00;13.23;;;3.70;;
38609;SDS011;24367;51.640;9.566;2023-04-29T13:29:27;12.85;;;3.53;;
38609;SDS011;24367;51.640;9.566;2023-04-29T13:31:54;11.27;;;3.65;;
38609;SDS011;24367;51.640;9.566;2023-04-29T13:34:21;14.93;;;3.60;;
38609;SDS011;24367;51.640;9.566;2023-04-29T13:36:48;10.82;;;3.78;;
38609;SDS011;24367;51.640;9.566;2023-04-29T13:39:15;11.45;;;3.70;;
38609;SDS011;24367;51.640;9.566;2023-04-29T13:41:41;9.18;;;3.20;;
38609;SDS011;24367;51.640;9.566;2023-04-29T13:44:08;8.00;;;3.05;;
38609;SDS011;24367;51.640;9.566;2023-04-29T13:46:34;6.47;;;3.10;;
38609;SDS011;24367;51.640;9.566;2023-04-29T13:49:01;10.65;;;2.90;;
38609;SDS011;24367;51.640;9.566;2023-04-29T13:51:28;13.85;;;3.10;;
38609;SDS011;24367;51.640;9.566;2023-04-29T13:53:57;6.82;;;3.22;;
38609;SDS011;24367;51.640;9.566;2023-04-29T13:56:23;9.27;;;3.00;;
38609;SDS011;24367;51.640;9.566;2023-04-29T13:58:50;12.45;;;3.35;;
38609;SDS011;24367;51.640;9.566;2023-04-29T14:01:17;8.07;;;3.25;;
38609;SDS011;24367;51.640;9.566;2023-04-29T14:03:43;9.25;;;3.28;;
38609;SDS011;24367;51.640;9.566;2023-04-29T14:06:10;9.57;;;3.20;;
38609;SDS011;24367;51.640;9.566;2023-04-29T14:08:36;8.27;;;2.88;;
38609;SDS011;24367;51.640;9.566;2023-04-29T14:11:04;8.73;;;3.22;;
38609;SDS011;24367;51.640;9.566;2023-04-29T14:13:30;8.13;;;3.20;;
38609;SDS011;24367;51.640;9.566;2023-04-29T14:15:56;8.68;;;3.28;;
38609;SDS011;24367;51.640;9.566;2023-04-29T14:18:23;6.90;;;3.42;;
38609;SDS011;24367;51.640;9.566;2023-04-29T14:20:51;8.93;;;3.40;;
38609;SDS011;24367;51.640;9.566;2023-04-29T14:23:18;7.22;;;2.90;;
38609;SDS011;24367;51.640;9.566;2023-04-29T14:25:45;7.90;;;2.88;;
38609;SDS011;24367;51.640;9.566;2023-04-29T14:28:13;7.38;;;3.53;;
38609;SDS011;24367;51.640;9.566;2023-04-29T14:30:39;8.38;;;3.00;;
38609;SDS011;24367;51.640;9.566;2023-04-29T14:33:07;6.95;;;3.10;;
38609;SDS011;24367;51.640;9.566;2023-04-29T14:35:36;7.40;;;2.95;;
38609;SDS011;24367;51.640;9.566;2023-04-29T14:38:03;7.57;;;3.22;;
38609;SDS011;24367;51.640;9.566;2023-04-29T14:40:29;8.70;;;3.00;;
38609;SDS011;24367;51.640;9.566;2023-04-29T14:42:56;7.97;;;3.15;;
38609;SDS011;24367;51.640;9.566;2023-04-29T14:45:24;4.93;;;2.85;;
38609;SDS011;24367;51.640;9.566;2023-04-29T14:47:50;6.20;;;2.97;;
38609;SDS011;24367;51.640;9.566;2023-04-29T14:50:16;4.85;;;2.80;;
38609;SDS011;24367;51.640;9.566;2023-04-29T14:52:43;4.97;;;3.08;;
38609;SDS011;24367;51.640;9.566;2023-04-29T14:55:09;6.75;;;2.63;;
38609;SDS011;24367;51.640;9.566;2023-04-29T14:57:36;6.75;;;2.95;;
38609;SDS011;24367;51.640;9.566;2023-04-29T15:00:03;5.22;;;2.80;;
38609;SDS011;24367;51.640;9.566;2023-04-29T15:02:33;6.78;;;2.58;;
38609;SDS011;24367;51.640;9.566;2023-04-29T15:04:59;6.97;;;3.03;;
38609;SDS011;24367;51.640;9.566;2023-04-29T15:07:28;5.40;;;2.90;;